Terminal Aerodrome Forecast
Issued by NWS

Home | Current Version | Previous Version | Text Only | Print | Product List | Glossary On
Versions: 1 2 3 4 5 6 7 8 9 10 11 12 13 14 15 16 17 18 19 20 21 22 23 24 25 26 27 28 29 30 31
000
FTUS46 KOTX 212335
TAFPUW
TAF
KPUW 212335Z 2200/2224 VRB03KT 6SM FU FEW200
     FM220400 25004KT P6SM FEW200
     FM221700 22008KT P6SM SCT150
     FM221900 24009KT P6SM SCT150 SCT200=

USA.gov is the U.S. government's official web portal to all federal, state and local government web resources and services.